Monroe, Indiana
Current Conditions -  °F | °C
As of 12:54 PM on Monday 26 Jan 2015 (Local Time) from KFWA Reporting Station
Broken Clouds Broken Clouds  
Wind Chill: 19°   Ceiling: 25000
Heat Index: 19°   Visibility: 10mi
Dew Point: 10°   Wind: 0mph
Humidity: 68%   Direction: NA
Pressure: 29.93"   Gusts: NA
Location:  40.75°N, 84.94°W
Report Text: KFWA 261754Z 00000KT 10SM FEW160 BKN250 M07/M12 A2993 RMK AO2 SLP147 4/002 933001 T10721122 11067 21139 58006
Loading
Personal Weather Stations






























Interactive Weather Map New forecast layout! Learn more

10-Day Weather Forecast

Advertisements
Track Severe Weather on mobile